createdAt,value
2018-12-24T00:02:53.961Z,71.50
2018-12-24T00:05:35.585Z,71.80
2018-12-24T00:08:16.541Z,71.57
2018-12-24T00:10:56.111Z,71.61
2018-12-24T00:19:04.439Z,71.51
2018-12-24T00:22:13.439Z,71.46
2018-12-24T00:25:03.961Z,71.39
2018-12-24T00:33:30.682Z,71.67
2018-12-24T00:36:00.937Z,71.57
2018-12-24T00:38:51.584Z,71.45
2018-12-24T00:41:21.767Z,71.57
2018-12-24T00:46:48.035Z,71.35
2018-12-24T00:49:57.273Z,71.27
2018-12-24T00:52:29.297Z,70.93
2018-12-24T01:06:21.071Z,69.39
2018-12-24T01:09:10.065Z,69.06
2018-12-24T01:12:24.559Z,68.98
2018-12-24T01:18:08.209Z,68.79
2018-12-24T01:20:57.279Z,68.35
2018-12-24T01:23:38.745Z,68.46
2018-12-24T01:26:27.788Z,68.20
2018-12-24T01:28:58.187Z,68.17
2018-12-24T01:32:07.345Z,67.80
2018-12-24T01:34:56.380Z,67.66
2018-12-24T01:40:12.681Z,67.71
2018-12-24T01:43:01.886Z,67.53
2018-12-24T01:45:32.216Z,67.73
2018-12-24T01:48:02.606Z,67.61
2018-12-24T01:50:33.371Z,67.40
2018-12-24T01:53:42.573Z,67.32
2018-12-24T01:59:46.061Z,67.00
2018-12-24T02:05:26.400Z,65.84
2018-12-24T02:07:56.673Z,65.70
2018-12-24T02:14:00.180Z,65.50
2018-12-24T02:22:33.612Z,65.79
2018-12-24T02:28:18.822Z,66.32
2018-12-24T02:42:34.165Z,66.44
2018-12-24T02:45:24.633Z,66.61
2018-12-24T02:48:08.582Z,67.09
2018-12-24T02:50:38.992Z,67.36
2018-12-24T02:53:09.872Z,68.32
2018-12-24T02:56:19.053Z,68.97
2018-12-24T02:59:08.098Z,69.17
2018-12-24T03:01:49.906Z,69.69
2018-12-24T03:04:40.568Z,70.00
2018-12-24T03:07:31.070Z,70.35
2018-12-24T03:13:29.758Z,71.00
2018-12-24T03:16:10.484Z,70.69
2018-12-24T03:18:59.655Z,70.24
2018-12-24T03:21:50.111Z,70.17
2018-12-24T03:24:40.585Z,69.98
2018-12-24T03:27:10.775Z,69.65
2018-12-24T03:32:49.618Z,69.53
2018-12-24T03:35:31.057Z,69.08
2018-12-24T03:41:03.985Z,68.41
2018-12-24T03:43:54.517Z,67.48
2018-12-24T03:49:35.153Z,66.43
2018-12-24T03:57:25.386Z,65.46
2018-12-24T04:00:16.098Z,65.14
2018-12-24T04:03:25.304Z,65.05
2018-12-24T04:09:10.527Z,64.80
2018-12-24T04:12:19.887Z,64.96
2018-12-24T04:15:09.258Z,64.89
2018-12-24T04:21:05.238Z,65.67
2018-12-24T04:23:46.139Z,65.84
2018-12-24T04:26:27.511Z,66.21
2018-12-24T04:29:09.323Z,65.96
2018-12-24T04:31:51.058Z,65.81
2018-12-24T04:34:32.768Z,65.74
2018-12-24T04:37:13.645Z,66.06
2018-12-24T04:39:54.569Z,66.00
2018-12-24T04:42:35.462Z,65.93
2018-12-24T04:45:24.663Z,66.33
2018-12-24T04:47:55.143Z,66.38
2018-12-24T04:51:04.279Z,66.52
2018-12-24T04:53:34.770Z,66.38
2018-12-24T04:56:05.101Z,66.49
2018-12-24T04:58:35.260Z,66.44
2018-12-24T05:01:24.426Z,66.45
2018-12-24T05:04:13.568Z,66.20
2018-12-24T05:06:44.072Z,65.97
2018-12-24T05:09:14.368Z,65.72
2018-12-24T05:12:04.200Z,65.83
2018-12-24T05:14:34.565Z,65.60
2018-12-24T05:17:04.845Z,65.43
2018-12-24T05:19:35.299Z,65.32
2018-12-24T05:22:24.470Z,65.38
2018-12-24T05:24:54.713Z,65.66
2018-12-24T05:27:25.009Z,65.76
2018-12-24T05:33:05.366Z,67.08
2018-12-24T05:38:35.938Z,67.11
2018-12-24T05:41:21.619Z,67.16
2018-12-24T05:44:03.440Z,67.52
2018-12-24T05:52:20.513Z,67.84
2018-12-24T05:58:19.214Z,67.28
2018-12-24T06:01:45.608Z,67.53
2018-12-24T06:04:36.367Z,68.05
2018-12-24T06:10:21.751Z,68.13
2018-12-24T06:13:10.929Z,67.21
2018-12-24T06:18:35.498Z,66.61
2018-12-24T06:21:05.941Z,66.34
2018-12-24T06:23:36.247Z,65.89
2018-12-24T06:26:06.713Z,65.18
2018-12-24T06:31:54.263Z,65.18
2018-12-24T06:40:19.784Z,63.78
2018-12-24T06:43:08.799Z,63.45
2018-12-24T06:48:51.916Z,62.58
2018-12-24T06:54:16.735Z,61.28
2018-12-24T06:56:46.966Z,60.64
2018-12-24T06:59:17.292Z,60.16
2018-12-24T07:02:05.509Z,59.45
2018-12-24T07:07:25.339Z,59.27
2018-12-24T07:10:14.451Z,58.71
2018-12-24T07:13:03.578Z,58.03
2018-12-24T07:15:33.846Z,58.03
2018-12-24T07:18:04.245Z,57.83
2018-12-24T07:21:12.021Z,58.40
2018-12-24T07:23:42.119Z,58.40
2018-12-24T07:26:12.882Z,58.32
2018-12-24T07:29:20.680Z,58.27
2018-12-24T07:31:51.061Z,58.27
2018-12-24T07:34:40.163Z,58.58
2018-12-24T07:40:00.801Z,59.50
2018-12-24T07:42:31.120Z,59.38
2018-12-24T07:45:01.426Z,59.34
2018-12-24T07:47:31.667Z,59.63
2018-12-24T07:50:13.235Z,58.46
2018-12-24T07:52:43.826Z,58.46
2018-12-24T07:55:14.119Z,57.71
2018-12-24T07:58:03.227Z,57.58
2018-12-24T08:00:34.106Z,57.58
2018-12-24T08:03:23.215Z,58.51
2018-12-24T08:05:54.004Z,58.93
2018-12-24T08:08:43.020Z,59.57
2018-12-24T08:11:32.077Z,60.03
2018-12-24T08:14:02.465Z,60.25
2018-12-24T08:16:32.817Z,60.27
2018-12-24T08:19:22.104Z,60.01
2018-12-24T08:22:11.189Z,59.57
2018-12-24T08:24:41.594Z,59.57
2018-12-24T08:27:30.718Z,59.36
2018-12-24T08:30:11.520Z,59.63
2018-12-24T08:32:41.826Z,59.63
2018-12-24T08:35:32.482Z,58.20
2018-12-24T08:38:22.547Z,57.78
2018-12-24T08:40:52.768Z,57.78
2018-12-24T08:43:23.125Z,59.34
2018-12-24T08:45:53.408Z,59.34
2018-12-24T08:48:23.759Z,59.55
2018-12-24T08:53:52.619Z,59.69
2018-12-24T08:56:22.925Z,57.05
2018-12-24T08:58:53.206Z,56.48
2018-12-24T09:01:23.680Z,57.22
2018-12-24T09:03:54.533Z,57.92
2018-12-24T09:06:24.853Z,58.80
2018-12-24T09:08:55.933Z,59.78
2018-12-24T09:11:26.249Z,60.38
2018-12-24T09:13:56.576Z,60.22
2018-12-24T09:16:26.988Z,60.02
2018-12-24T09:18:57.297Z,59.28
2018-12-24T09:21:27.569Z,57.64
2018-12-24T09:23:58.443Z,55.55
2018-12-24T09:26:28.717Z,56.21
2018-12-24T09:28:58.979Z,56.91
2018-12-24T09:31:29.402Z,57.69
2018-12-24T09:33:59.743Z,57.87
2018-12-24T09:39:25.208Z,59.37
2018-12-24T09:41:55.537Z,59.99
2018-12-24T09:44:44.591Z,62.82
2018-12-24T09:49:59.261Z,63.61
2018-12-24T09:58:20.103Z,65.50
2018-12-24T10:03:42.601Z,66.08
2018-12-24T10:06:15.970Z,66.08
2018-12-24T10:08:46.705Z,66.63
2018-12-24T10:11:16.974Z,66.74
2018-12-24T10:16:41.704Z,65.95
2018-12-24T10:19:12.045Z,65.52
2018-12-24T10:22:01.315Z,65.18
2018-12-24T10:24:31.843Z,63.90
2018-12-24T10:27:02.005Z,63.20
2018-12-24T10:29:32.222Z,62.91
2018-12-24T10:32:02.528Z,62.61
2018-12-24T10:34:51.681Z,61.95
2018-12-24T10:37:22.099Z,61.33
2018-12-24T10:39:52.373Z,60.41
2018-12-24T10:42:41.629Z,58.49
2018-12-24T10:45:16.483Z,57.55
2018-12-24T10:47:44.006Z,56.51
2018-12-24T10:50:14.453Z,55.44
2018-12-24T10:52:55.948Z,56.03
2018-12-24T10:55:26.378Z,56.39
2018-12-24T10:57:56.623Z,58.74
2018-12-24T11:00:26.918Z,59.88
2018-12-24T11:02:57.343Z,60.45
2018-12-24T11:05:46.825Z,60.59
2018-12-24T11:08:35.863Z,61.38
2018-12-24T11:11:06.215Z,61.51
2018-12-24T11:13:36.468Z,61.98
2018-12-24T11:16:25.564Z,62.57
2018-12-24T11:18:55.939Z,63.10
2018-12-24T11:21:26.491Z,63.54
2018-12-24T11:23:56.849Z,65.18
2018-12-24T11:26:27.088Z,65.03
2018-12-24T11:28:57.526Z,64.60
2018-12-24T11:31:27.892Z,65.10
2018-12-24T11:33:58.633Z,63.71
2018-12-24T11:36:28.987Z,62.13
2018-12-24T11:38:59.362Z,60.15
2018-12-24T11:41:29.730Z,56.56
2018-12-24T11:44:00.009Z,55.27
2018-12-24T11:46:30.368Z,54.88
2018-12-24T11:49:00.615Z,55.23
2018-12-24T11:51:30.883Z,55.30
2018-12-24T11:54:01.314Z,54.94
2018-12-24T11:56:31.614Z,55.13
2018-12-24T11:59:02.381Z,54.88
2018-12-24T12:01:32.771Z,55.07
2018-12-24T12:04:03.042Z,55.02
2018-12-24T12:06:33.433Z,54.74
2018-12-24T12:11:42.359Z,54.34
2018-12-24T12:14:12.627Z,54.11
2018-12-24T12:16:42.917Z,54.16
2018-12-24T12:22:25.387Z,54.53
2018-12-24T12:24:55.656Z,54.82
2018-12-24T12:27:25.997Z,54.59
2018-12-24T12:29:56.308Z,54.73
2018-12-24T12:35:16.352Z,55.09
2018-12-24T12:37:46.634Z,54.84
2018-12-24T12:40:17.108Z,55.13
2018-12-24T12:42:47.532Z,55.64
2018-12-24T12:45:17.965Z,55.42
2018-12-24T12:47:48.246Z,55.98
2018-12-24T12:50:18.542Z,55.56
2018-12-24T12:52:48.846Z,55.86
2018-12-24T12:55:30.912Z,56.15
2018-12-24T12:58:12.276Z,56.27
2018-12-24T13:00:43.175Z,56.41
2018-12-24T13:03:13.432Z,56.41
2018-12-24T13:05:43.731Z,56.91
2018-12-24T13:08:14.172Z,56.97
2018-12-24T13:10:44.517Z,57.13
2018-12-24T13:13:14.895Z,57.17
2018-12-24T13:16:04.025Z,57.18
2018-12-24T13:18:34.394Z,57.45
2018-12-24T13:21:04.719Z,57.46
2018-12-24T13:23:35.091Z,57.82
2018-12-24T13:26:05.415Z,57.85
2018-12-24T13:28:35.649Z,57.91
2018-12-24T13:31:06.093Z,58.28
2018-12-24T13:33:36.506Z,58.41
2018-12-24T13:41:38.089Z,58.75
2018-12-24T13:44:08.513Z,58.50
2018-12-24T13:46:38.781Z,58.63
2018-12-24T13:49:08.968Z,58.91
2018-12-24T13:51:39.423Z,58.91
2018-12-24T13:54:09.745Z,59.03
2018-12-24T13:59:35.710Z,59.00
2018-12-24T14:02:06.012Z,59.24
2018-12-24T14:04:36.281Z,59.51
2018-12-24T14:10:21.854Z,59.64
2018-12-24T14:12:53.825Z,59.78
2018-12-24T14:15:24.717Z,59.60
2018-12-24T14:17:55.150Z,59.59
2018-12-24T14:20:25.454Z,59.40
2018-12-24T14:22:55.717Z,59.45
2018-12-24T14:25:26.122Z,59.38
2018-12-24T14:27:56.475Z,59.23
2018-12-24T14:30:26.741Z,59.11
2018-12-24T14:32:57.132Z,59.19
2018-12-24T14:35:27.302Z,59.06
2018-12-24T14:37:57.566Z,58.83
2018-12-24T14:40:46.810Z,58.85
2018-12-24T14:43:17.216Z,58.71
2018-12-24T14:45:47.570Z,59.01
2018-12-24T14:48:17.980Z,58.92
2018-12-24T14:50:48.211Z,58.98
2018-12-24T14:53:18.544Z,58.76
2018-12-24T14:55:48.978Z,58.67
2018-12-24T14:58:19.288Z,58.54
2018-12-24T15:00:49.595Z,58.51
2018-12-24T15:03:19.980Z,58.47
2018-12-24T15:05:50.405Z,58.50
2018-12-24T15:08:20.653Z,58.49
2018-12-24T15:10:50.995Z,58.23
2018-12-24T15:13:21.430Z,58.21
2018-12-24T15:15:51.692Z,58.34
2018-12-24T15:18:22.114Z,58.35
2018-12-24T15:20:52.423Z,58.38
2018-12-24T15:23:22.783Z,58.37
2018-12-24T15:25:53.181Z,58.38
2018-12-24T15:28:23.447Z,58.33
2018-12-24T15:30:53.832Z,58.53
2018-12-24T15:33:24.135Z,58.77
2018-12-24T15:35:54.422Z,58.78
2018-12-24T15:38:24.868Z,58.82
2018-12-24T15:40:55.209Z,59.05
2018-12-24T15:43:25.498Z,59.08
2018-12-24T15:45:55.794Z,59.18
2018-12-24T15:48:26.344Z,59.53
2018-12-24T15:51:15.472Z,59.68
2018-12-24T15:53:46.302Z,60.00
2018-12-24T15:56:17.297Z,59.92
2018-12-24T15:58:58.512Z,60.22
2018-12-24T16:01:28.874Z,59.99
2018-12-24T16:03:59.231Z,59.96
2018-12-24T16:09:25.916Z,60.05
2018-12-24T16:14:45.524Z,59.87
2018-12-24T16:17:15.907Z,59.82
2018-12-24T16:19:46.220Z,59.88
2018-12-24T16:22:16.602Z,59.98
2018-12-24T16:24:46.939Z,59.95
2018-12-24T16:27:17.254Z,59.69
2018-12-24T16:29:47.690Z,60.03
2018-12-24T16:32:17.978Z,59.72
2018-12-24T16:34:48.331Z,59.62
2018-12-24T16:37:18.741Z,59.33
2018-12-24T16:40:07.919Z,59.35
2018-12-24T16:42:38.435Z,59.27
2018-12-24T16:45:08.680Z,59.19
2018-12-24T16:47:39.003Z,59.48
2018-12-24T16:50:09.336Z,59.31
2018-12-24T16:52:39.625Z,59.24
2018-12-24T16:55:09.948Z,59.43
2018-12-24T16:57:41.330Z,59.63
2018-12-24T17:00:24.117Z,59.57
2018-12-24T17:02:54.510Z,59.52
2018-12-24T17:05:25.059Z,59.61
2018-12-24T17:07:55.357Z,59.61
2018-12-24T17:10:25.775Z,59.58
2018-12-24T17:13:14.841Z,59.63
2018-12-24T17:15:45.206Z,59.75
2018-12-24T17:18:15.531Z,59.76
2018-12-24T17:20:45.817Z,60.37
2018-12-24T17:23:16.227Z,60.79
2018-12-24T17:25:46.541Z,60.67
2018-12-24T17:28:36.011Z,60.94
2018-12-24T17:34:07.132Z,61.13
2018-12-24T17:36:37.972Z,61.52
2018-12-24T17:42:09.592Z,62.02
2018-12-24T17:44:39.864Z,62.44
2018-12-24T17:47:16.215Z,62.49
2018-12-24T17:49:42.269Z,62.51
2018-12-24T17:52:12.593Z,62.96
2018-12-24T17:55:01.764Z,62.84
2018-12-24T17:57:32.476Z,63.12
2018-12-24T18:00:02.830Z,63.44
2018-12-24T18:02:33.161Z,63.48
2018-12-24T18:05:03.522Z,63.70
2018-12-24T18:07:33.801Z,63.70
2018-12-24T18:10:04.275Z,63.99
2018-12-24T18:12:34.633Z,64.18
2018-12-24T18:15:04.943Z,64.35
2018-12-24T18:17:35.433Z,64.82
2018-12-24T18:20:25.826Z,64.79
2018-12-24T18:22:56.420Z,65.13
2018-12-24T18:25:27.165Z,65.25
2018-12-24T18:27:57.431Z,65.31
2018-12-24T18:30:27.754Z,65.58
2018-12-24T18:35:53.269Z,65.59
2018-12-24T18:38:23.539Z,65.83
2018-12-24T18:40:53.902Z,65.62
2018-12-24T18:43:24.341Z,65.31
2018-12-24T18:45:54.653Z,65.04
2018-12-24T18:48:24.964Z,63.87
2018-12-24T18:50:55.336Z,63.07
2018-12-24T18:53:26.044Z,62.47
2018-12-24T18:55:56.333Z,62.37
2018-12-24T18:58:45.398Z,62.58
2018-12-24T19:04:11.452Z,62.37
2018-12-24T19:06:42.249Z,61.79
2018-12-24T19:09:12.562Z,61.80
2018-12-24T19:11:42.935Z,61.45
2018-12-24T19:14:13.401Z,61.46
2018-12-24T19:16:43.703Z,61.23
2018-12-24T19:19:14.041Z,60.86
2018-12-24T19:21:44.383Z,60.92
2018-12-24T19:24:14.638Z,60.73
2018-12-24T19:26:45.173Z,60.85
2018-12-24T19:29:15.910Z,60.90
2018-12-24T19:31:46.216Z,60.96
2018-12-24T19:34:16.529Z,60.95
2018-12-24T19:36:46.838Z,60.28
2018-12-24T19:39:35.925Z,60.25
2018-12-24T19:42:06.265Z,59.49
2018-12-24T19:44:36.541Z,58.88
2018-12-24T19:47:06.887Z,58.88
2018-12-24T19:52:50.450Z,58.58
2018-12-24T19:55:20.736Z,58.57
2018-12-24T19:58:09.835Z,58.44
2018-12-24T20:00:40.133Z,58.44
2018-12-24T20:03:10.467Z,57.81
2018-12-24T20:05:40.951Z,57.82
2018-12-24T20:08:30.054Z,58.81
2018-12-24T20:11:11.544Z,59.32
2018-12-24T20:13:41.809Z,59.32
2018-12-24T20:16:12.133Z,59.46
2018-12-24T20:22:04.173Z,60.77
2018-12-24T20:24:53.414Z,60.90
2018-12-24T20:27:23.828Z,60.90
2018-12-24T20:29:54.116Z,60.83
2018-12-24T20:32:24.431Z,60.87
2018-12-24T20:34:54.808Z,61.05
2018-12-24T20:37:25.135Z,61.21
2018-12-24T20:39:55.388Z,61.58
2018-12-24T20:42:44.495Z,60.85
2018-12-24T20:48:22.802Z,60.66
2018-12-24T20:51:16.279Z,61.75
2018-12-24T20:53:44.980Z,61.75
2018-12-24T20:56:34.092Z,62.00
2018-12-24T20:59:04.498Z,62.89
2018-12-24T21:01:34.790Z,62.46
2018-12-24T21:04:15.889Z,62.90
2018-12-24T21:06:46.288Z,62.90
2018-12-24T21:09:16.853Z,62.11
2018-12-24T21:11:47.242Z,62.12
2018-12-24T21:19:59.789Z,64.93
2018-12-24T21:22:30.050Z,67.58
2018-12-24T21:25:00.360Z,69.21
2018-12-24T21:27:30.745Z,70.86
2018-12-24T21:32:50.756Z,73.19
2018-12-24T21:35:21.132Z,73.66
2018-12-24T21:37:51.400Z,73.68
2018-12-24T21:46:21.059Z,74.46
2018-12-24T21:48:51.428Z,75.12
2018-12-24T21:51:21.724Z,75.23
2018-12-24T21:54:11.279Z,75.07
2018-12-24T21:59:51.112Z,75.07
2018-12-24T22:02:21.398Z,74.19
2018-12-24T22:05:02.597Z,73.11
2018-12-24T22:07:44.255Z,73.41
2018-12-24T22:10:15.483Z,73.72
2018-12-24T22:12:45.859Z,73.45
2018-12-24T22:15:16.200Z,72.44
2018-12-24T22:17:46.569Z,72.02
2018-12-24T22:20:16.837Z,72.05
2018-12-24T22:22:54.047Z,71.32
2018-12-24T22:25:24.391Z,71.61
2018-12-24T22:28:13.607Z,70.87
2018-12-24T22:30:43.967Z,69.94
2018-12-24T22:33:14.281Z,70.17
2018-12-24T22:35:44.563Z,70.82
2018-12-24T22:38:14.894Z,70.87
2018-12-24T22:41:04.111Z,71.26
2018-12-24T22:43:34.434Z,70.52
2018-12-24T22:46:04.726Z,71.00
2018-12-24T22:54:10.590Z,71.29
2018-12-24T22:56:42.229Z,71.19
2018-12-24T23:01:59.904Z,70.49
2018-12-24T23:04:30.186Z,70.44
2018-12-24T23:12:47.052Z,69.34
2018-12-24T23:15:36.134Z,68.30
2018-12-24T23:21:02.547Z,67.29
2018-12-24T23:23:32.813Z,66.92
2018-12-24T23:26:03.034Z,66.48
2018-12-24T23:28:33.343Z,66.47
2018-12-24T23:31:03.714Z,66.48
2018-12-24T23:33:34.047Z,65.83
2018-12-24T23:36:04.432Z,65.41
2018-12-24T23:38:53.505Z,64.76
2018-12-24T23:41:23.932Z,65.16
2018-12-24T23:44:12.983Z,65.48
2018-12-24T23:47:02.113Z,65.29
2018-12-24T23:49:32.470Z,64.98
2018-12-24T23:52:02.812Z,65.10
2018-12-24T23:54:33.258Z,65.15
2018-12-24T23:59:54.696Z,65.44
